Time;durP1;ratioP1;P1;durP2;ratioP2;P2;SDS_P1;SDS_P2;PMS_P1;PMS_P2;Temp;Humidity;BMP_temperature;BMP_pressure;BME280_temperature;BME280_humidity;BME280_pressure;Samples;Min_cycle;Max_cycle;Signal;HPM_P1;HPM_P2
2023/08/18 00:00:14;;;;;;;3.97;2.25;;;16.80;99.90;;;;;;5058531;28;20455;-77
2023/08/18 00:02:40;;;;;;;3.53;2.00;;;16.90;99.90;;;;;;5047845;28;20415;-76
2023/08/18 00:05:07;;;;;;;5.03;2.05;;;17.00;99.90;;;;;;5049478;28;20440;-76
2023/08/18 00:07:33;;;;;;;4.40;2.10;;;17.10;99.90;;;;;;5054094;28;20505;-77
2023/08/18 00:09:59;;;;;;;4.27;2.20;;;16.80;99.90;;;;;;5022507;28;20526;-76
2023/08/18 00:12:25;;;;;;;3.80;2.00;;;17.00;99.90;;;;;;5040942;28;20441;-77
2023/08/18 00:14:52;;;;;;;3.63;2.00;;;16.80;99.90;;;;;;5044983;28;20417;-77
2023/08/18 00:17:18;;;;;;;4.60;2.03;;;16.80;99.90;;;;;;5045496;28;20894;-82
2023/08/18 00:19:44;;;;;;;3.83;2.00;;;17.00;99.90;;;;;;5048536;28;20412;-82
2023/08/18 00:22:10;;;;;;;3.17;2.08;;;16.90;99.90;;;;;;5049091;28;20860;-82
2023/08/18 00:24:36;;;;;;;4.07;2.30;;;16.90;99.90;;;;;;5036094;28;20413;-82
2023/08/18 00:27:02;;;;;;;4.13;2.10;;;16.90;99.90;;;;;;5058500;28;20415;-82
2023/08/18 00:29:28;;;;;;;4.32;2.30;;;17.10;99.90;;;;;;5055420;28;20481;-82
2023/08/18 00:31:53;;;;;;;3.83;2.40;;;17.10;99.90;;;;;;5060831;28;20419;-82
2023/08/18 00:34:19;;;;;;;3.53;2.20;;;17.20;99.90;;;;;;5053086;28;20423;-82
2023/08/18 00:36:45;;;;;;;4.90;2.60;;;16.90;99.90;;;;;;5057934;28;20417;-82
2023/08/18 00:39:10;;;;;;;5.00;2.40;;;17.20;99.90;;;;;;5041576;28;20778;-81
2023/08/18 00:41:36;;;;;;;4.90;2.20;;;17.10;99.90;;;;;;5069090;28;20425;-81
2023/08/18 00:44:02;;;;;;;5.67;2.40;;;16.90;99.90;;;;;;5008239;28;20896;-81
2023/08/18 00:46:30;;;;;;;4.03;2.57;;;17.00;99.90;;;;;;5055888;28;20805;-81
2023/08/18 00:48:59;;;;;;;4.40;2.47;;;16.90;99.90;;;;;;5048716;28;20426;-82
2023/08/18 00:51:25;;;;;;;3.33;2.33;;;16.90;99.90;;;;;;5048509;28;20421;-81
2023/08/18 00:53:51;;;;;;;5.90;2.40;;;17.00;99.90;;;;;;5027360;28;20461;-81
2023/08/18 00:56:18;;;;;;;7.57;2.65;;;17.10;99.90;;;;;;5019461;28;20460;-81
2023/08/18 00:58:44;;;;;;;4.47;2.50;;;17.10;99.90;;;;;;5023473;28;20519;-82
2023/08/18 01:01:09;;;;;;;4.00;2.33;;;17.20;99.90;;;;;;5057150;28;20423;-82
2023/08/18 01:03:35;;;;;;;5.70;2.90;;;16.90;99.90;;;;;;5046637;28;20485;-82
2023/08/18 01:06:01;;;;;;;4.65;2.40;;;17.20;99.90;;;;;;5053062;28;20516;-82
2023/08/18 01:08:27;;;;;;;6.20;2.70;;;17.10;99.90;;;;;;5028113;28;20554;-82
2023/08/18 01:11:16;;;;;;;5.07;2.80;;;17.00;99.90;;;;;;5037606;28;20769;-82
2023/08/18 01:13:53;;;;;;;4.82;2.65;;;16.90;99.90;;;;;;5054659;28;20435;-82
2023/08/18 01:16:26;;;;;;;5.68;2.90;;;17.10;99.90;;;;;;5041480;28;20917;-81
2023/08/18 01:18:53;;;;;;;5.55;2.78;;;16.90;99.90;;;;;;5047901;28;20575;-82
2023/08/18 01:21:23;;;;;;;7.70;3.28;;;17.10;99.90;;;;;;5035961;28;20421;-82
2023/08/18 01:23:49;;;;;;;4.50;2.80;;;16.80;99.90;;;;;;5037013;28;20446;-82
2023/08/18 01:26:14;;;;;;;5.17;2.83;;;16.90;99.90;;;;;;5037015;28;20938;-82
2023/08/18 01:28:43;;;;;;;5.45;3.08;;;16.90;99.90;;;;;;5056496;28;20403;-82
2023/08/18 01:31:17;;;;;;;5.40;2.80;;;16.90;99.90;;;;;;5052562;28;20416;-81
2023/08/18 01:33:48;;;;;;;6.45;2.90;;;16.80;99.90;;;;;;5054590;28;20473;-83
2023/08/18 01:36:21;;;;;;;7.78;3.45;;;16.90;99.90;;;;;;5053684;28;20427;-83
2023/08/18 01:38:47;;;;;;;6.93;3.20;;;16.90;99.90;;;;;;5040529;28;20435;-83
2023/08/18 01:41:17;;;;;;;7.60;3.80;;;16.90;99.90;;;;;;5036584;28;20499;-82
2023/08/18 01:43:42;;;;;;;5.72;3.40;;;17.00;99.90;;;;;;5051205;28;20510;-83
2023/08/18 01:46:08;;;;;;;5.82;3.40;;;16.90;99.90;;;;;;5021711;28;20844;-83
2023/08/18 01:48:34;;;;;;;6.43;3.90;;;17.10;99.90;;;;;;5046894;28;20448;-83
2023/08/18 01:50:59;;;;;;;5.88;3.50;;;17.00;99.90;;;;;;5051365;28;20451;-82
2023/08/18 01:53:25;;;;;;;9.23;3.85;;;17.10;99.90;;;;;;5042887;28;20429;-83
2023/08/18 01:55:51;;;;;;;7.00;3.50;;;16.80;99.90;;;;;;5037077;28;20985;-83
2023/08/18 01:58:16;;;;;;;6.10;3.73;;;17.10;99.90;;;;;;5020150;28;20749;-83
2023/08/18 02:00:42;;;;;;;6.95;3.65;;;16.80;99.90;;;;;;5037854;28;20423;-83
2023/08/18 02:03:08;;;;;;;6.68;3.67;;;17.00;99.90;;;;;;5021883;28;20423;-83
2023/08/18 02:05:39;;;;;;;7.82;3.55;;;17.00;99.90;;;;;;5049943;28;20425;-83
2023/08/18 02:08:05;;;;;;;9.43;3.50;;;16.70;99.90;;;;;;5038573;28;20530;-82
2023/08/18 02:10:31;;;;;;;5.00;3.13;;;16.90;99.90;;;;;;5051394;28;20456;-83
2023/08/18 02:12:56;;;;;;;9.73;3.50;;;16.90;99.90;;;;;;5038931;28;20902;-83
2023/08/18 02:15:22;;;;;;;5.47;3.20;;;16.80;99.90;;;;;;5027334;28;20485;-82
2023/08/18 02:17:48;;;;;;;5.78;3.15;;;16.70;99.90;;;;;;5036811;28;20438;-83
2023/08/18 02:20:13;;;;;;;7.50;3.47;;;16.90;99.90;;;;;;5056359;28;20426;-84
2023/08/18 02:22:39;;;;;;;9.10;3.75;;;16.80;99.90;;;;;;5038235;28;20423;-83
2023/08/18 02:25:05;;;;;;;8.93;3.60;;;16.90;99.90;;;;;;5057402;28;20489;-83
2023/08/18 02:27:31;;;;;;;7.03;3.97;;;17.10;99.90;;;;;;5053849;28;20417;-83
2023/08/18 02:29:57;;;;;;;7.50;3.53;;;16.80;99.90;;;;;;5022536;28;20429;-83
2023/08/18 02:32:22;;;;;;;7.40;4.10;;;17.00;99.90;;;;;;5031123;28;20429;-82
2023/08/18 02:34:48;;;;;;;8.25;3.70;;;16.90;99.90;;;;;;5057820;28;20429;-82
2023/08/18 02:37:14;;;;;;;9.18;4.22;;;16.90;99.90;;;;;;5022363;28;20751;-83
2023/08/18 02:39:39;;;;;;;7.77;3.77;;;16.90;99.90;;;;;;5038997;28;20421;-83
2023/08/18 02:42:05;;;;;;;7.30;4.00;;;17.10;99.90;;;;;;5052302;28;20413;-82
2023/08/18 02:44:31;;;;;;;6.30;3.78;;;16.80;99.90;;;;;;5052702;28;20550;-83
2023/08/18 02:46:57;;;;;;;8.63;3.95;;;17.10;99.90;;;;;;5054560;28;20451;-83
2023/08/18 02:49:23;;;;;;;10.75;4.53;;;17.00;99.90;;;;;;5038240;28;20778;-83
2023/08/18 02:51:49;;;;;;;8.93;4.00;;;16.70;99.90;;;;;;5036890;28;20510;-81
2023/08/18 02:54:14;;;;;;;8.15;4.00;;;16.90;99.90;;;;;;5048985;28;20802;-83
2023/08/18 02:56:40;;;;;;;7.33;4.20;;;16.90;99.90;;;;;;5036028;28;20422;-82
2023/08/18 02:59:06;;;;;;;6.43;3.80;;;16.90;99.90;;;;;;5041572;28;20406;-83
2023/08/18 03:01:33;;;;;;;6.72;4.18;;;16.80;99.90;;;;;;5041711;28;20415;-83
2023/08/18 03:03:58;;;;;;;6.25;3.80;;;17.10;99.90;;;;;;5054837;28;20415;-83
2023/08/18 03:06:24;;;;;;;5.95;3.80;;;16.80;99.90;;;;;;5045224;28;20411;-83
2023/08/18 03:08:50;;;;;;;6.60;3.65;;;17.00;99.90;;;;;;5054095;28;20401;-83
2023/08/18 03:11:16;;;;;;;4.97;3.80;;;17.10;99.90;;;;;;5041224;28;20919;-83
2023/08/18 03:13:41;;;;;;;6.37;3.70;;;16.80;99.90;;;;;;5055240;28;20462;-84
2023/08/18 03:16:07;;;;;;;6.37;3.50;;;17.10;99.90;;;;;;5039407;28;20977;-83
2023/08/18 03:18:34;;;;;;;7.82;4.10;;;17.20;99.90;;;;;;5023638;28;20425;-82
2023/08/18 03:21:01;;;;;;;7.47;3.95;;;17.00;99.90;;;;;;5048875;28;20499;-82
2023/08/18 03:23:27;;;;;;;5.82;3.70;;;16.70;99.90;;;;;;5065143;28;20455;-82
2023/08/18 03:26:01;;;;;;;6.40;3.77;;;17.10;99.90;;;;;;5031922;28;20482;-82
2023/08/18 03:28:27;;;;;;;7.13;3.55;;;15.70;99.90;;;;;;5063497;28;20420;-83
2023/08/18 03:31:01;;;;;;;5.63;3.73;;;16.90;99.90;;;;;;5043484;28;20475;-83
2023/08/18 03:33:27;;;;;;;6.10;3.85;;;15.80;99.90;;;;;;5050306;28;20417;-83
2023/08/18 03:35:54;;;;;;;6.07;4.07;;;16.60;99.90;;;;;;5052338;28;20930;-83
2023/08/18 03:38:23;;;;;;;6.53;3.83;;;17.00;99.90;;;;;;5057504;28;20407;-83
2023/08/18 03:40:55;;;;;;;5.93;4.10;;;16.70;99.90;;;;;;5062212;28;20431;-83
2023/08/18 03:43:21;;;;;;;6.25;4.28;;;16.90;99.90;;;;;;5038693;28;20415;-82
2023/08/18 03:45:47;;;;;;;8.77;3.97;;;16.70;99.90;;;;;;5034305;28;20417;-82
2023/08/18 03:48:13;;;;;;;5.75;4.07;;;16.90;99.90;;;;;;5057652;28;20399;-82
2023/08/18 03:50:39;;;;;;;7.05;4.40;;;17.10;99.90;;;;;;5023627;28;20451;-82
2023/08/18 03:53:05;;;;;;;9.30;4.40;;;16.80;99.90;;;;;;5044105;28;20428;-82
2023/08/18 03:55:31;;;;;;;6.47;4.35;;;17.00;99.90;;;;;;5036015;28;20514;-83
2023/08/18 03:57:56;;;;;;;8.63;4.88;;;17.00;99.90;;;;;;5036008;28;21172;-83
2023/08/18 04:00:22;;;;;;;6.40;4.35;;;17.00;99.90;;;;;;5015729;28;20457;-83
2023/08/18 04:02:48;;;;;;;10.93;4.63;;;17.00;99.90;;;;;;5077313;28;20398;-83
2023/08/18 04:05:14;;;;;;;6.77;4.40;;;16.80;99.90;;;;;;5040694;28;20413;-83
2023/08/18 04:07:40;;;;;;;7.18;4.80;;;16.80;99.90;;;;;;5051749;28;20432;-82
2023/08/18 04:10:07;;;;;;;8.67;4.80;;;16.90;99.90;;;;;;5038904;28;20428;-82
2023/08/18 04:12:33;;;;;;;6.83;4.83;;;16.80;99.90;;;;;;5035784;28;20959;-82
2023/08/18 04:14:59;;;;;;;8.20;5.32;;;17.00;99.90;;;;;;5021908;28;20447;-82
2023/08/18 04:17:24;;;;;;;7.17;4.73;;;16.90;99.90;;;;;;5030665;28;20425;-84
2023/08/18 04:19:50;;;;;;;8.87;5.33;;;16.90;99.90;;;;;;5054786;28;20428;-83
2023/08/18 04:22:16;;;;;;;7.50;5.47;;;17.00;99.90;;;;;;5054016;28;20893;-83
2023/08/18 04:24:41;;;;;;;7.20;5.40;;;16.70;99.90;;;;;;5052374;28;20455;-83
2023/08/18 04:27:07;;;;;;;9.27;5.70;;;17.00;99.90;;;;;;5037378;28;20499;-82
2023/08/18 04:29:33;;;;;;;8.50;5.53;;;16.70;99.90;;;;;;5055715;28;20419;-82
2023/08/18 04:31:58;;;;;;;9.15;5.80;;;16.90;99.90;;;;;;5037709;28;20956;-82
2023/08/18 04:34:24;;;;;;;9.00;6.00;;;16.70;99.90;;;;;;5040282;28;20427;-83
2023/08/18 04:36:50;;;;;;;9.85;5.78;;;16.70;99.90;;;;;;5051941;28;20424;-82
2023/08/18 04:39:16;;;;;;;9.37;5.90;;;16.90;99.90;;;;;;5070563;28;20527;-82
2023/08/18 04:41:42;;;;;;;8.50;6.15;;;16.60;99.90;;;;;;5014106;28;20465;-82
2023/08/18 04:44:08;;;;;;;8.97;6.47;;;16.90;99.90;;;;;;5047518;28;20417;-82
2023/08/18 04:46:34;;;;;;;10.43;6.43;;;16.80;99.90;;;;;;5032066;28;20468;-82
2023/08/18 04:49:00;;;;;;;10.10;6.65;;;16.80;99.90;;;;;;5028626;28;20409;-83
2023/08/18 04:51:26;;;;;;;9.53;6.47;;;16.70;99.90;;;;;;5037575;28;20559;-83
2023/08/18 04:53:52;;;;;;;9.73;6.97;;;16.70;99.90;;;;;;5052865;28;20425;-82
2023/08/18 04:56:18;;;;;;;9.70;7.15;;;16.70;99.90;;;;;;5022669;28;20423;-82
2023/08/18 04:58:43;;;;;;;11.73;7.20;;;16.70;99.90;;;;;;5035373;28;20472;-83
2023/08/18 05:01:09;;;;;;;12.80;7.57;;;16.60;99.90;;;;;;5037700;28;20772;-83
2023/08/18 05:03:35;;;;;;;10.90;7.80;;;16.90;99.90;;;;;;5026987;28;20423;-82
2023/08/18 05:06:09;;;;;;;14.63;8.60;;;16.70;99.90;;;;;;5052805;28;20416;-82
2023/08/18 05:08:40;;;;;;;12.48;8.10;;;16.80;99.90;;;;;;5049755;28;20417;-81
2023/08/18 05:11:08;;;;;;;19.50;8.68;;;16.60;99.90;;;;;;5034341;28;20522;-81
2023/08/18 05:13:40;;;;;;;14.70;8.65;;;16.90;99.90;;;;;;5036300;28;20427;-82
2023/08/18 05:16:05;;;;;;;12.40;8.38;;;16.60;99.90;;;;;;5048881;28;20412;-82
2023/08/18 05:18:32;;;;;;;12.10;8.85;;;16.80;99.90;;;;;;5042319;28;20431;-83
2023/08/18 05:21:01;;;;;;;12.70;8.75;;;16.70;99.90;;;;;;5032679;28;20998;-84
2023/08/18 05:23:28;;;;;;;13.40;8.75;;;16.80;99.90;;;;;;5041836;28;20422;-83
2023/08/18 05:25:56;;;;;;;14.57;8.95;;;16.60;99.90;;;;;;5050632;28;20425;-83
2023/08/18 05:28:23;;;;;;;15.05;8.75;;;16.80;99.90;;;;;;5040955;28;20501;-83
2023/08/18 05:30:49;;;;;;;11.60;8.13;;;16.70;99.90;;;;;;5027777;28;20946;-86
2023/08/18 05:33:16;;;;;;;12.83;8.47;;;16.90;99.90;;;;;;5052653;28;20539;-83
2023/08/18 05:35:42;;;;;;;12.63;8.52;;;16.90;99.90;;;;;;5013240;28;20425;-82
2023/08/18 05:38:11;;;;;;;13.32;8.85;;;17.10;99.90;;;;;;5040927;28;20414;-82
2023/08/18 05:40:44;;;;;;;12.20;8.50;;;16.70;99.90;;;;;;5039635;28;20930;-83
2023/08/18 05:43:12;;;;;;;13.35;8.98;;;16.90;99.90;;;;;;5034816;28;20424;-81
2023/08/18 05:45:38;;;;;;;13.85;8.65;;;17.00;99.90;;;;;;5055430;28;20790;-81
2023/08/18 05:48:04;;;;;;;14.77;8.48;;;17.10;99.90;;;;;;5041566;28;20411;-82
2023/08/18 05:50:31;;;;;;;15.27;8.73;;;17.00;99.90;;;;;;5021615;28;20510;-81
2023/08/18 05:52:56;;;;;;;13.20;8.85;;;17.10;99.90;;;;;;5055694;28;20407;-82
2023/08/18 05:55:28;;;;;;;16.63;8.77;;;16.90;99.90;;;;;;5055499;28;20464;-82
2023/08/18 05:57:54;;;;;;;13.05;8.60;;;16.90;99.90;;;;;;5054071;28;20759;-82
2023/08/18 06:00:20;;;;;;;14.20;8.60;;;17.00;99.90;;;;;;5044611;28;20427;-82
2023/08/18 06:02:46;;;;;;;15.95;8.95;;;16.80;99.90;;;;;;5075664;28;20411;-82
2023/08/18 06:05:12;;;;;;;13.88;9.48;;;16.70;99.90;;;;;;5049079;28;20767;-82
2023/08/18 06:07:41;;;;;;;12.40;8.77;;;17.00;99.90;;;;;;5058650;28;20503;-81
2023/08/18 06:10:09;;;;;;;13.97;8.97;;;16.90;99.90;;;;;;5033298;28;20463;-81
2023/08/18 06:12:35;;;;;;;14.32;9.70;;;17.00;99.90;;;;;;5046330;28;20427;-81
2023/08/18 06:15:01;;;;;;;14.40;9.48;;;16.80;99.90;;;;;;5053215;28;20427;-81
2023/08/18 06:17:27;;;;;;;17.08;10.25;;;16.70;99.90;;;;;;5041649;28;20507;-82
2023/08/18 06:19:53;;;;;;;12.13;8.83;;;16.90;99.90;;;;;;5048720;28;20510;-82
2023/08/18 06:22:19;;;;;;;17.58;8.80;;;16.80;99.90;;;;;;5056528;28;20469;-82
2023/08/18 06:24:45;;;;;;;15.00;9.00;;;16.90;99.90;;;;;;5047370;28;20423;-82
2023/08/18 06:27:11;;;;;;;14.67;9.27;;;16.90;99.90;;;;;;5048570;28;20419;-82
2023/08/18 06:29:38;;;;;;;14.23;9.40;;;17.10;99.90;;;;;;5040912;28;20947;-82
2023/08/18 06:32:04;;;;;;;14.13;8.77;;;17.30;99.90;;;;;;5039585;28;20454;-82
2023/08/18 06:34:30;;;;;;;13.70;8.67;;;17.10;99.90;;;;;;5040720;28;20720;-82
2023/08/18 06:36:55;;;;;;;14.10;8.53;;;17.30;99.90;;;;;;5057354;28;20432;-81
2023/08/18 06:39:21;;;;;;;14.40;9.07;;;17.20;99.90;;;;;;5053839;28;20426;-82
2023/08/18 06:41:47;;;;;;;14.02;8.98;;;17.40;99.90;;;;;;5032902;28;20421;-83
2023/08/18 06:44:13;;;;;;;14.75;9.30;;;17.10;99.90;;;;;;5054576;28;20425;-82
2023/08/18 06:46:39;;;;;;;14.48;8.23;;;16.90;99.90;;;;;;5051148;28;20419;-82
2023/08/18 06:49:05;;;;;;;16.47;8.60;;;17.30;99.90;;;;;;5040335;28;20455;-82
2023/08/18 06:51:30;;;;;;;16.23;8.57;;;17.30;99.90;;;;;;5048786;28;20992;-84
2023/08/18 06:53:56;;;;;;;15.23;8.80;;;17.20;99.90;;;;;;5046497;28;20425;-82
2023/08/18 06:56:22;;;;;;;15.40;8.82;;;17.20;99.90;;;;;;5050727;28;20417;-79
2023/08/18 06:58:48;;;;;;;14.27;8.63;;;17.20;99.90;;;;;;5052807;28;20479;-82
2023/08/18 07:01:13;;;;;;;15.95;8.88;;;17.20;99.90;;;;;;5036592;28;20837;-82
2023/08/18 07:03:39;;;;;;;15.27;9.35;;;17.30;99.90;;;;;;5050318;28;20482;-82
2023/08/18 07:06:05;;;;;;;12.23;8.00;;;17.00;99.90;;;;;;5058382;28;20407;-83
2023/08/18 07:08:32;;;;;;;16.80;8.90;;;16.80;99.90;;;;;;5023083;28;20416;-81
2023/08/18 07:10:58;;;;;;;14.93;9.23;;;17.20;99.90;;;;;;5052930;28;20520;-84
2023/08/18 07:13:24;;;;;;;13.03;8.47;;;17.20;99.90;;;;;;5057751;28;20544;-86
2023/08/18 07:15:49;;;;;;;12.43;9.00;;;17.10;99.90;;;;;;5043060;28;20403;-86
2023/08/18 07:18:17;;;;;;;14.30;8.50;;;17.00;99.90;;;;;;5057182;28;20404;-86
2023/08/18 07:20:44;;;;;;;13.97;7.80;;;17.20;99.90;;;;;;5056757;28;20441;-86
2023/08/18 07:23:10;;;;;;;14.98;8.27;;;17.30;99.90;;;;;;5048249;28;20759;-85
2023/08/18 07:25:39;;;;;;;11.73;7.57;;;17.30;99.90;;;;;;5058274;28;20422;-85
2023/08/18 07:28:05;;;;;;;13.73;7.57;;;17.60;99.90;;;;;;5046521;28;20402;-87
2023/08/18 07:30:31;;;;;;;11.13;7.40;;;17.40;99.90;;;;;;5032723;28;20430;-85
2023/08/18 07:32:58;;;;;;;10.88;7.15;;;17.50;99.90;;;;;;5055615;28;21072;-84
2023/08/18 07:35:23;;;;;;;10.53;6.80;;;17.60;99.90;;;;;;5021958;28;20463;-83
2023/08/18 07:37:50;;;;;;;10.10;6.57;;;17.80;99.90;;;;;;5034372;28;20417;-80
2023/08/18 07:40:16;;;;;;;10.38;6.60;;;18.00;99.90;;;;;;5028966;28;20429;-82
2023/08/18 07:42:42;;;;;;;9.73;6.28;;;17.00;99.90;;;;;;5031158;28;20423;-80
2023/08/18 07:45:08;;;;;;;12.30;7.05;;;17.60;99.90;;;;;;5050643;28;20440;-81
2023/08/18 07:47:34;;;;;;;11.77;6.78;;;17.70;99.90;;;;;;5048857;28;20438;-80
2023/08/18 07:50:00;;;;;;;13.52;6.82;;;17.80;99.90;;;;;;5035554;28;20476;-80
2023/08/18 07:52:26;;;;;;;12.47;6.80;;;17.90;99.90;;;;;;5044256;28;20494;-81
2023/08/18 07:54:52;;;;;;;14.80;6.90;;;17.80;99.90;;;;;;5061820;28;20435;-81
2023/08/18 07:57:17;;;;;;;9.88;6.10;;;17.60;99.90;;;;;;5045278;28;20481;-81
2023/08/18 07:59:43;;;;;;;12.43;6.55;;;18.10;99.90;;;;;;5023125;28;20422;-80
2023/08/18 08:02:09;;;;;;;10.48;6.90;;;18.00;99.90;;;;;;5058206;28;20901;-80
2023/08/18 08:04:34;;;;;;;12.33;6.70;;;18.10;99.90;;;;;;5015588;28;20417;-80
2023/08/18 08:07:00;;;;;;;12.48;6.75;;;18.00;99.90;;;;;;5029202;28;20514;-80
2023/08/18 08:09:26;;;;;;;11.32;7.40;;;17.70;99.90;;;;;;5025788;28;20927;-80
2023/08/18 08:11:52;;;;;;;11.05;6.90;;;17.60;99.90;;;;;;5051304;28;20477;-79
2023/08/18 08:14:22;;;;;;;11.48;7.18;;;17.50;99.90;;;;;;5044261;28;20509;-79
2023/08/18 08:16:47;;;;;;;11.57;7.00;;;17.80;99.90;;;;;;5043305;28;20421;-79
2023/08/18 08:19:14;;;;;;;13.13;7.03;;;17.90;99.90;;;;;;5029955;28;20416;-82
2023/08/18 08:21:43;;;;;;;13.57;7.68;;;17.90;99.90;;;;;;5030030;28;20423;-82
2023/08/18 08:24:08;;;;;;;12.63;7.43;;;17.70;99.90;;;;;;5036804;28;20417;-83
2023/08/18 08:26:35;;;;;;;14.70;7.40;;;17.80;99.90;;;;;;5038222;28;20579;-83
2023/08/18 08:29:00;;;;;;;16.27;7.88;;;18.10;99.90;;;;;;5027287;28;20427;-83
2023/08/18 08:31:26;;;;;;;15.07;7.80;;;17.80;99.90;;;;;;5056112;28;20434;-83
2023/08/18 08:33:52;;;;;;;14.80;8.40;;;18.00;99.90;;;;;;5021709;28;20423;-84
2023/08/18 08:36:17;;;;;;;14.48;7.97;;;18.10;99.90;;;;;;5053963;28;20521;-84
2023/08/18 08:38:43;;;;;;;18.08;8.48;;;18.00;99.90;;;;;;5042859;28;20414;-83
2023/08/18 08:41:09;;;;;;;17.03;8.60;;;18.10;99.90;;;;;;5015843;28;20436;-83
2023/08/18 08:43:35;;;;;;;14.45;8.05;;;18.00;99.90;;;;;;5051760;28;20511;-83
2023/08/18 08:46:01;;;;;;;13.15;7.90;;;18.20;99.90;;;;;;5027665;28;20445;-83
2023/08/18 08:48:36;;;;;;;16.13;7.50;;;18.70;99.90;;;;;;5018434;28;20421;-83
2023/08/18 08:51:04;;;;;;;13.20;7.57;;;18.70;99.90;;;;;;5048061;28;20494;-83
2023/08/18 08:53:35;;;;;;;16.93;8.10;;;18.80;99.90;;;;;;5039573;28;20614;-84
2023/08/18 08:56:03;;;;;;;13.95;7.95;;;18.80;99.90;;;;;;5046669;28;20503;-84
2023/08/18 08:58:31;;;;;;;17.05;8.70;;;18.80;99.90;;;;;;5046015;28;20444;-84
2023/08/18 09:01:01;;;;;;;14.35;8.55;;;19.00;99.90;;;;;;5059957;28;20495;-84
2023/08/18 09:03:30;;;;;;;17.30;8.85;;;19.10;99.90;;;;;;5010475;28;20476;-84
2023/08/18 09:05:56;;;;;;;16.33;8.88;;;19.00;99.90;;;;;;5060182;28;20430;-84
2023/08/18 09:08:22;;;;;;;18.65;8.77;;;19.00;99.90;;;;;;5051737;28;20933;-84
2023/08/18 09:10:48;;;;;;;17.10;8.45;;;19.70;99.90;;;;;;5028023;28;20437;-84
2023/08/18 09:13:14;;;;;;;17.55;8.43;;;19.70;99.90;;;;;;5036006;28;20465;-83
2023/08/18 09:15:42;;;;;;;17.42;8.57;;;19.50;99.90;;;;;;5024623;28;20561;-83
2023/08/18 09:18:08;;;;;;;18.33;8.85;;;19.50;99.90;;;;;;5048770;28;20429;-83
2023/08/18 09:20:34;;;;;;;21.02;8.63;;;19.30;99.90;;;;;;5028940;28;20432;-85
2023/08/18 09:23:01;;;;;;;20.27;8.43;;;19.30;99.90;;;;;;5003907;28;20500;-84
2023/08/18 09:25:26;;;;;;;15.03;7.50;;;19.40;99.90;;;;;;5046138;28;20408;-83
2023/08/18 09:27:52;;;;;;;15.80;8.00;;;19.90;99.90;;;;;;5055702;28;20472;-86
2023/08/18 09:30:18;;;;;;;18.42;8.20;;;19.50;99.90;;;;;;5017723;28;20737;-83
2023/08/18 09:32:44;;;;;;;13.95;7.47;;;19.60;99.90;;;;;;5027927;28;20915;-85
2023/08/18 09:35:11;;;;;;;14.13;7.47;;;19.40;99.90;;;;;;5051752;28;20436;-84
2023/08/18 09:37:37;;;;;;;15.10;8.13;;;19.50;99.90;;;;;;5024341;28;20421;-85
2023/08/18 09:40:04;;;;;;;13.25;7.32;;;19.40;99.90;;;;;;5044395;28;20491;-83
2023/08/18 09:42:30;;;;;;;13.48;7.50;;;19.50;99.90;;;;;;5037747;28;20838;-84
2023/08/18 09:44:56;;;;;;;13.70;7.57;;;20.20;99.90;;;;;;5041180;28;20421;-84
2023/08/18 09:47:27;;;;;;;13.65;7.55;;;20.00;99.90;;;;;;5023314;28;20770;-85
2023/08/18 09:49:53;;;;;;;14.13;7.40;;;20.00;99.90;;;;;;5068596;28;20415;-83
2023/08/18 09:52:21;;;;;;;12.38;7.47;;;20.20;99.90;;;;;;5062454;28;20423;-83
2023/08/18 09:54:56;;;;;;;13.27;7.13;;;20.10;99.90;;;;;;5031626;28;20430;-83
2023/08/18 09:57:47;;;;;;;12.77;7.68;;;20.30;99.90;;;;;;5049376;28;20438;-82
2023/08/18 10:00:15;;;;;;;12.93;7.50;;;20.70;99.90;;;;;;5065148;28;20429;-83
2023/08/18 10:02:44;;;;;;;12.43;7.43;;;20.70;99.90;;;;;;5057144;28;20935;-83
2023/08/18 10:05:12;;;;;;;15.55;7.65;;;20.40;99.90;;;;;;5034928;28;20421;-84
2023/08/18 10:07:39;;;;;;;13.13;7.43;;;20.40;99.90;;;;;;5029250;28;20445;-83
2023/08/18 10:10:06;;;;;;;10.55;6.93;;;20.10;99.90;;;;;;5065190;28;20439;-83
2023/08/18 10:12:32;;;;;;;12.30;7.15;;;20.20;99.90;;;;;;5061841;28;20415;-83
2023/08/18 10:14:58;;;;;;;15.98;8.82;;;20.40;99.90;;;;;;5030000;28;20912;-83
2023/08/18 10:17:24;;;;;;;10.90;7.40;;;20.30;99.90;;;;;;5057317;28;20423;-83
2023/08/18 10:19:55;;;;;;;12.07;8.35;;;20.50;99.90;;;;;;5029381;28;20429;-84
2023/08/18 10:22:24;;;;;;;12.77;8.55;;;20.30;99.90;;;;;;5055750;28;20403;-84
2023/08/18 10:24:50;;;;;;;12.90;8.37;;;20.20;99.90;;;;;;5056062;28;20406;-83
2023/08/18 10:27:28;;;;;;;13.88;8.00;;;20.30;99.90;;;;;;5006808;28;20402;-83
2023/08/18 10:29:59;;;;;;;15.85;8.60;;;20.40;99.90;;;;;;5052467;28;20455;-84
2023/08/18 10:32:29;;;;;;;13.10;8.68;;;19.90;99.90;;;;;;5050611;28;20425;-83
2023/08/18 10:35:21;;;;;;;14.30;8.43;;;20.00;99.90;;;;;;5042976;28;20477;-84
2023/08/18 10:38:04;;;;;;;12.82;8.65;;;20.20;99.90;;;;;;5037693;28;20964;-83
2023/08/18 10:40:38;;;;;;;12.55;8.35;;;20.40;99.90;;;;;;5034510;28;20432;-84
2023/08/18 10:43:07;;;;;;;11.80;7.97;;;19.30;99.90;;;;;;5038753;28;20745;-83
2023/08/18 10:45:33;;;;;;;11.73;7.72;;;20.40;99.90;;;;;;5059713;28;21010;-85
2023/08/18 10:48:04;;;;;;;11.45;7.95;;;20.60;99.90;;;;;;5059589;28;20416;-83
2023/08/18 10:50:31;;;;;;;11.97;8.10;;;20.60;99.90;;;;;;5027714;28;20414;-83
2023/08/18 10:52:58;;;;;;;11.13;8.00;;;20.70;99.90;;;;;;5060049;28;20939;-82
2023/08/18 10:55:24;;;;;;;11.15;7.78;;;20.50;99.90;;;;;;5059982;28;20446;-84
2023/08/18 10:57:51;;;;;;;12.02;7.82;;;20.40;99.90;;;;;;5059353;28;20427;-84
2023/08/18 11:00:20;;;;;;;12.48;8.13;;;20.60;99.90;;;;;;5043454;28;20424;-83
2023/08/18 11:02:49;;;;;;;11.20;8.00;;;20.30;99.90;;;;;;5075435;28;20443;-84
2023/08/18 11:05:18;;;;;;;10.03;7.90;;;20.50;99.90;;;;;;5055621;28;20415;-83
2023/08/18 11:07:44;;;;;;;11.30;7.65;;;21.00;99.90;;;;;;5043101;28;20442;-83
2023/08/18 11:10:24;;;;;;;10.80;7.95;;;21.20;99.90;;;;;;5054455;28;20460;-81
2023/08/18 11:12:55;;;;;;;13.82;8.40;;;20.70;99.90;;;;;;5046807;28;20439;-80
2023/08/18 11:15:22;;;;;;;10.80;7.75;;;20.70;99.90;;;;;;5054341;28;20753;-81
2023/08/18 11:17:49;;;;;;;9.90;7.72;;;21.00;99.90;;;;;;5037941;28;20439;-83
2023/08/18 11:20:16;;;;;;;11.32;8.20;;;21.00;99.90;;;;;;5031709;28;20499;-83
2023/08/18 11:22:53;;;;;;;10.98;8.68;;;20.80;99.90;;;;;;5040407;28;20503;-83
2023/08/18 11:25:22;;;;;;;12.13;8.18;;;20.80;99.90;;;;;;5039147;28;20417;-82
2023/08/18 11:27:49;;;;;;;12.80;8.63;;;21.30;99.90;;;;;;5049529;28;20430;-82
2023/08/18 11:30:15;;;;;;;14.07;8.63;;;21.50;99.90;;;;;;5037010;28;20439;-82
2023/08/18 11:32:42;;;;;;;9.88;7.85;;;21.00;99.90;;;;;;5033935;28;20421;-83
2023/08/18 11:35:09;;;;;;;10.73;7.55;;;21.60;99.90;;;;;;5030084;28;20409;-84
2023/08/18 11:37:44;;;;;;;10.98;7.93;;;21.90;99.90;;;;;;5057232;28;20529;-84
2023/08/18 11:40:12;;;;;;;11.05;8.13;;;21.90;99.90;;;;;;5044283;28;20422;-84
2023/08/18 11:42:42;;;;;;;10.60;8.82;;;22.00;99.90;;;;;;5049326;28;20432;-84
2023/08/18 11:45:16;;;;;;;11.25;8.48;;;21.80;99.90;;;;;;5048291;28;20460;-85
2023/08/18 11:47:46;;;;;;;10.90;8.57;;;21.80;99.90;;;;;;5030086;28;20416;-85
2023/08/18 11:50:21;;;;;;;11.70;8.40;;;22.00;99.90;;;;;;5035969;28;20439;-84
2023/08/18 11:52:51;;;;;;;10.15;7.85;;;21.90;99.90;;;;;;5032892;28;20433;-85
2023/08/18 11:55:46;;;;;;;11.67;8.63;;;22.40;99.90;;;;;;5045810;28;20423;-85
2023/08/18 11:58:16;;;;;;;12.27;8.20;;;22.60;99.90;;;;;;5057625;28;20411;-85
2023/08/18 12:00:43;;;;;;;10.30;8.05;;;22.90;99.90;;;;;;5050064;28;20431;-84
2023/08/18 12:03:21;;;;;;;12.98;8.52;;;23.20;99.90;;;;;;5054040;28;20844;-86
2023/08/18 12:05:47;;;;;;;10.45;8.35;;;23.40;99.90;;;;;;5044835;28;20415;-85
2023/08/18 12:08:13;;;;;;;11.73;8.43;;;23.00;99.90;;;;;;5053199;28;20426;-86
2023/08/18 12:10:39;;;;;;;10.93;8.53;;;22.50;99.90;;;;;;5069188;28;20528;-86
2023/08/18 12:13:05;;;;;;;12.50;9.02;;;22.80;99.90;;;;;;5058426;28;20425;-86
2023/08/18 12:15:33;;;;;;;10.27;8.13;;;22.50;99.90;;;;;;5021660;28;20485;-86
2023/08/18 12:17:59;;;;;;;10.77;8.55;;;22.90;99.90;;;;;;5052703;28;20607;-84
2023/08/18 12:20:25;;;;;;;10.77;8.65;;;23.10;99.90;;;;;;5046866;28;20443;-85
2023/08/18 12:22:52;;;;;;;11.98;8.98;;;23.20;99.90;;;;;;5042430;28;20446;-85
2023/08/18 12:25:20;;;;;;;11.20;8.70;;;23.30;99.90;;;;;;5041206;28;20416;-84
2023/08/18 12:27:47;;;;;;;11.50;8.95;;;23.30;99.90;;;;;;5060616;28;20421;-84
2023/08/18 12:30:14;;;;;;;11.73;8.75;;;23.00;99.90;;;;;;5030579;28;20417;-82
2023/08/18 12:32:41;;;;;;;11.35;9.57;;;23.30;99.90;;;;;;5032327;28;20436;-84
2023/08/18 12:35:07;;;;;;;14.00;9.85;;;23.20;99.90;;;;;;5050061;28;20446;-85
2023/08/18 12:37:33;;;;;;;10.95;9.45;;;23.20;99.90;;;;;;5022883;28;20421;-85
2023/08/18 12:39:59;;;;;;;11.23;9.30;;;25.30;99.90;;;;;;5051296;28;20526;-85